Home   Weather   Russia   Pskov   Past weeks
Flag for Russia

Past Weather in Pskov, Russia — Yesterday and Last 2 Weeks

Currently: 66 °F. Scattered clouds. (Weather station: Tartu/Ulenurme, Russia). See more current weather

Past Weather in Pskov — Graph

°F

Pskov Temperature Yesterday

Maximum temperature yesterday: 68 °F (at 5:20 pm)
Minimum temperature yesterday: 48 °F (at 2:20 am)
Average temperature yesterday: 60 °F

High & Low Weather Summary for the Past Weeks

 TemperatureHumidityPressure
High84 °F (Jul 27, 12:20 pm)100% (Jul 31, 5:50 am)30.15 "Hg (Jul 31, 5:50 am)
Low45 °F (Aug 5, 5:50 am)35% (Jul 21, 4:20 pm)29.39 "Hg (Jul 30, 11:20 pm)
Average65 °F69%29.82 "Hg
* Reported Jul 21 11:20 am — Aug 5 11:20 am, Pskov. Weather by CustomWeather, © 2021

Note: Actual official high and low records may vary slightly from our data, if they occured in-between our weather recording intervals... More about our weather records

Pskov Weather History for the Previous 24 Hours

Scroll right to see more
 ConditionsComfort  
Time TempWeatherWind HumidityBarometerVisibility
11:20 am
Thu, Aug 5
66 °FMild.7 mph56%29.98 "HgN/A
10:50 am66 °FMild.7 mph52%30.01 "HgN/A
10:20 am64 °FMild.6 mph60%30.01 "HgN/A
9:50 am63 °FMild.5 mph59%30.01 "HgN/A
8:50 am59 °FCool.3 mph72%30.01 "HgN/A
8:20 am55 °FCool.No wind88%30.01 "HgN/A
7:50 am50 °FCool.No wind100%30.01 "HgN/A
7:20 am48 °FCool.No wind94%30.01 "HgN/A
6:50 am46 °FCool.No wind93%30.01 "HgN/A
6:20 am45 °FQuite cool.No wind93%30.01 "HgN/A
5:50 am45 °FQuite cool.1 mph93%30.01 "HgN/A
5:20 am46 °FCool.No wind87%30.01 "HgN/A
4:50 am46 °FCool.1 mph87%30.01 "HgN/A
4:20 am46 °FCool.2 mph93%30.01 "HgN/A
3:50 am46 °FCool.2 mph87%30.01 "HgN/A
3:20 am46 °FCool.No wind93%30.01 "HgN/A
2:20 am48 °FCool.No wind87%30.01 "HgN/A
1:50 am48 °FCool.2 mph94%30.01 "HgN/A
1:20 am48 °FCool.1 mph94%30.01 "HgN/A
12:50 am48 °FCool.3 mph94%30.01 "HgN/A
12:20 am50 °FCool.No wind88%30.01 "HgN/A
11:50 pm
Wed, Aug 4
52 °FCool.No wind88%30.01 "HgN/A
11:20 pm52 °FCool.2 mph88%30.01 "HgN/A
10:50 pm55 °FPassing clouds.No wind77%30.01 "HgN/A
10:20 pm55 °FPassing clouds.No wind77%29.98 "HgN/A
9:50 pm59 °FPassing clouds.No wind72%29.98 "HgN/A
9:20 pm61 °FScattered clouds.No wind68%29.98 "HgN/A
8:50 pm63 °FPassing clouds.2 mph64%29.98 "HgN/A
8:20 pm63 °FPartly sunny.3 mph59%29.98 "HgN/A
7:50 pm64 °FScattered clouds.6 mph52%29.98 "HgN/A
7:20 pm66 °FMild.6 mph46%29.98 "HgN/A
6:50 pm68 °FMild.6 mph40%29.98 "HgN/A
6:20 pm68 °FMild.8 mph40%29.98 "HgN/A
5:50 pm68 °FPassing clouds.8 mph43%29.98 "HgN/A
5:20 pm68 °FPassing clouds.7 mph43%29.98 "HgN/A
4:50 pm66 °FOvercast.5 mph46%29.98 "HgN/A
4:20 pm66 °FOvercast.7 mph46%29.98 "HgN/A
3:50 pm64 °FOvercast.9 mph49%29.98 "HgN/A
3:20 pm64 °FOvercast.9 mph52%29.98 "HgN/A
2:50 pm66 °FPartly sunny.13 mph49%29.98 "HgN/A
2:20 pm66 °FMostly cloudy.12 mph46%29.98 "HgN/A
1:50 pm66 °FOvercast.9 mph43%29.98 "HgN/A
1:20 pm66 °FPartly sunny.9 mph40%29.98 "HgN/A
12:50 pm64 °FOvercast.8 mph49%29.98 "HgN/A
12:20 pm66 °FPartly sunny.12 mph40%29.98 "HgN/A
Weather by CustomWeather, © 2021

See weather overview